Time;durP1;ratioP1;P1;durP2;ratioP2;P2;SDS_P1;SDS_P2;PMS_P1;PMS_P2;Temp;Humidity;BMP_temperature;BMP_pressure;BME280_temperature;BME280_humidity;BME280_pressure;Samples;Min_cycle;Max_cycle;Signal;HPM_P1;HPM_P2
2021/08/07 00:00:27;;;;;;;5.00;4.45;;;;;;;24.16;100.00;100296.25;4901650;29;20046;-71
2021/08/07 00:03:14;;;;;;;6.35;4.60;;;;;;;24.09;100.00;100303.06;4901547;29;20123;-72
2021/08/07 00:06:00;;;;;;;9.55;5.00;;;;;;;24.38;100.00;100306.06;4902002;29;20361;-72
2021/08/07 00:08:46;;;;;;;7.18;4.80;;;;;;;24.29;100.00;100309.50;4901432;29;20465;-72
2021/08/07 00:11:32;;;;;;;5.90;4.90;;;;;;;24.05;100.00;100319.47;4901632;29;20116;-72
2021/08/07 00:14:18;;;;;;;8.07;5.88;;;;;;;24.08;100.00;100319.25;4900862;29;20096;-72
2021/08/07 00:17:05;;;;;;;8.38;6.43;;;;;;;23.99;100.00;100318.13;4901400;29;20116;-72
2021/08/07 00:19:50;;;;;;;8.63;6.10;;;;;;;23.97;100.00;100313.88;4901591;29;20039;-72
2021/08/07 00:22:36;;;;;;;7.57;6.13;;;;;;;24.07;100.00;100314.88;4901104;29;20427;-72
2021/08/07 00:25:22;;;;;;;7.28;5.85;;;;;;;23.87;100.00;100311.03;4901374;29;20096;-72
2021/08/07 00:28:08;;;;;;;6.25;5.57;;;;;;;23.47;100.00;100322.28;4901006;29;20054;-72
2021/08/07 00:30:54;;;;;;;10.07;6.07;;;;;;;23.66;100.00;100322.59;4901792;29;20036;-72
2021/08/07 00:33:40;;;;;;;7.78;5.85;;;;;;;23.71;100.00;100321.22;4901142;29;20457;-72
2021/08/07 00:36:26;;;;;;;6.40;5.57;;;;;;;23.59;100.00;100326.69;4900255;29;20037;-72
2021/08/07 00:39:11;;;;;;;6.57;5.30;;;;;;;23.80;100.00;100328.56;4900902;29;20039;-72
2021/08/07 00:41:58;;;;;;;6.95;5.15;;;;;;;23.69;100.00;100319.66;4900900;29;20525;-72
2021/08/07 00:44:43;;;;;;;6.82;5.20;;;;;;;23.76;100.00;100326.22;4900826;29;20036;-72
2021/08/07 00:47:29;;;;;;;7.57;5.53;;;;;;;23.18;100.00;100330.66;4900824;29;20083;-72
2021/08/07 00:50:15;;;;;;;7.65;5.43;;;;;;;23.48;100.00;100334.69;4900370;29;20096;-72
2021/08/07 00:53:03;;;;;;;9.05;5.93;;;;;;;23.39;100.00;100338.94;4900595;29;20020;-72
2021/08/07 00:55:49;;;;;;;8.77;6.38;;;;;;;23.57;100.00;100347.34;4901579;29;20036;-72
2021/08/07 00:58:34;;;;;;;10.63;7.35;;;;;;;23.48;100.00;100341.72;4900417;29;20367;-72
2021/08/07 01:01:21;;;;;;;11.95;7.20;;;;;;;23.59;100.00;100345.41;4899415;29;20032;-72
2021/08/07 01:04:17;;;;;;;10.27;7.00;;;;;;;23.48;100.00;100343.56;4899612;29;20244;-72
2021/08/07 01:07:18;;;;;;;8.25;6.38;;;;;;;23.54;100.00;100347.59;4900876;29;20060;-72
2021/08/07 01:10:18;;;;;;;8.77;6.72;;;;;;;23.28;100.00;100354.91;4900223;29;20028;-72
2021/08/07 01:13:09;;;;;;;10.55;7.82;;;;;;;23.54;100.00;100360.97;4900349;29;20017;-72
2021/08/07 01:16:31;;;;;;;10.05;7.85;;;;;;;23.52;100.00;100350.38;4900114;29;20123;-72
2021/08/07 01:19:18;;;;;;;12.10;8.00;;;;;;;23.51;100.00;100350.50;4900294;29;20043;-72
2021/08/07 01:22:05;;;;;;;11.93;7.93;;;;;;;23.29;100.00;100360.16;4899302;29;20132;-72
2021/08/07 01:24:58;;;;;;;13.50;8.82;;;;;;;23.33;100.00;100353.59;4900710;29;20037;-72
2021/08/07 01:27:45;;;;;;;11.50;8.60;;;;;;;23.29;100.00;100354.81;4899351;29;20036;-72
2021/08/07 01:30:32;;;;;;;10.90;8.65;;;;;;;22.84;100.00;100360.00;4899719;29;20370;-72
2021/08/07 01:33:19;;;;;;;13.10;9.20;;;;;;;22.99;100.00;100358.88;4900059;29;20036;-72
2021/08/07 01:36:05;;;;;;;12.68;9.70;;;;;;;23.19;100.00;100358.25;4900191;29;20044;-72
2021/08/07 01:38:51;;;;;;;13.45;9.82;;;;;;;22.99;100.00;100359.72;4899119;29;20024;-72
2021/08/07 01:41:38;;;;;;;14.25;9.73;;;;;;;23.07;100.00;100349.31;4900292;29;20032;-72
2021/08/07 01:44:23;;;;;;;11.65;9.30;;;;;;;23.37;100.00;100356.88;4899583;29;20044;-72
2021/08/07 01:47:28;;;;;;;11.23;8.93;;;;;;;22.92;100.00;100360.28;4899580;29;20088;-72
2021/08/07 01:50:22;;;;;;;12.40;9.93;;;;;;;23.00;100.00;100361.44;4899161;29;20028;-72
2021/08/07 01:53:10;;;;;;;15.13;10.18;;;;;;;23.04;100.00;100354.91;4899693;29;20025;-72
2021/08/07 01:56:05;;;;;;;13.10;9.70;;;;;;;22.91;100.00;100350.59;4899168;29;20092;-72
2021/08/07 01:58:59;;;;;;;16.27;10.30;;;;;;;22.94;100.00;100348.53;4899626;29;20035;-72
2021/08/07 02:01:48;;;;;;;13.65;10.35;;;;;;;23.18;100.00;100340.47;4899544;29;20036;-72
2021/08/07 02:04:34;;;;;;;14.02;10.80;;;;;;;22.98;100.00;100339.31;4898481;29;20389;-72
2021/08/07 02:07:20;;;;;;;14.68;10.73;;;;;;;22.62;100.00;100344.69;4898821;29;20111;-72
2021/08/07 02:10:08;;;;;;;14.45;11.23;;;;;;;22.42;100.00;100350.59;4898852;29;20381;-72
2021/08/07 02:12:55;;;;;;;16.38;11.73;;;;;;;22.64;100.00;100344.56;4902428;29;20103;-73
2021/08/07 02:15:41;;;;;;;14.85;11.48;;;;;;;22.60;100.00;100340.44;4903169;29;20044;-72
2021/08/07 02:18:29;;;;;;;17.25;11.90;;;;;;;22.68;100.00;100341.59;4902963;29;20047;-72
2021/08/07 02:21:16;;;;;;;17.73;11.68;;;;;;;22.47;100.00;100347.63;4902113;29;20056;-72
2021/08/07 02:24:02;;;;;;;15.13;11.65;;;;;;;22.18;100.00;100346.16;4903545;29;20339;-72
2021/08/07 02:26:48;;;;;;;17.88;12.52;;;;;;;22.01;100.00;100349.13;4903047;29;20038;-71
2021/08/07 02:29:35;;;;;;;14.80;11.98;;;;;;;22.28;100.00;100364.06;4903348;29;20040;-71
2021/08/07 02:32:21;;;;;;;15.52;12.02;;;;;;;22.11;100.00;100371.56;4902181;29;20025;-72
2021/08/07 02:35:10;;;;;;;16.10;12.52;;;;;;;22.29;100.00;100378.25;4902994;29;20044;-72
2021/08/07 02:37:56;;;;;;;16.55;11.98;;;;;;;22.07;100.00;100383.41;4902898;29;20028;-72
2021/08/07 02:40:42;;;;;;;15.05;11.95;;;;;;;22.48;100.00;100376.03;4902240;29;20028;-72
2021/08/07 02:43:29;;;;;;;19.58;13.23;;;;;;;22.15;100.00;100381.88;4903184;29;20037;-72
2021/08/07 02:46:16;;;;;;;15.52;12.43;;;;;;;22.37;100.00;100381.22;4902314;29;20033;-71
2021/08/07 02:49:02;;;;;;;16.58;12.18;;;;;;;22.22;100.00;100391.19;4902747;29;20056;-71
2021/08/07 02:51:50;;;;;;;12.80;11.27;;;;;;;22.71;100.00;100394.75;4902484;29;20059;-71
2021/08/07 02:54:36;;;;;;;12.85;11.25;;;;;;;22.63;100.00;100394.47;4902726;29;20036;-72
2021/08/07 02:57:22;;;;;;;14.70;12.15;;;;;;;22.66;100.00;100401.38;4902464;29;20458;-71
2021/08/07 03:00:08;;;;;;;13.07;11.38;;;;;;;22.64;100.00;100393.53;4902383;29;20052;-71
2021/08/07 03:02:53;;;;;;;12.73;10.30;;;;;;;22.59;100.00;100400.97;4901470;29;20029;-71
2021/08/07 03:05:39;;;;;;;14.65;10.90;;;;;;;22.36;100.00;100409.75;4902122;29;20454;-71
2021/08/07 03:08:25;;;;;;;12.70;10.57;;;;;;;21.89;100.00;100404.22;4902049;29;20040;-71
2021/08/07 03:11:12;;;;;;;12.38;9.77;;;;;;;22.15;100.00;100405.06;4902511;29;20039;-72
2021/08/07 03:13:58;;;;;;;13.48;10.98;;;;;;;21.73;100.00;100406.22;4901918;29;20024;-71
2021/08/07 03:16:44;;;;;;;13.57;10.77;;;;;;;22.04;100.00;100418.28;4902006;29;20021;-72
2021/08/07 03:19:30;;;;;;;13.35;9.95;;;;;;;22.53;100.00;100422.81;4902151;29;20513;-71
2021/08/07 03:22:17;;;;;;;15.10;9.90;;;;;;;22.56;100.00;100430.59;4902100;29;20037;-72
2021/08/07 03:25:03;;;;;;;15.27;9.90;;;;;;;22.47;100.00;100444.56;4902302;29;20075;-72
2021/08/07 03:27:49;;;;;;;15.60;9.60;;;;;;;22.78;100.00;100461.94;4901330;29;20028;-72
2021/08/07 03:30:35;;;;;;;12.02;9.77;;;;;;;22.77;100.00;100457.56;4902432;29;20041;-71
2021/08/07 03:33:20;;;;;;;13.98;9.73;;;;;;;22.22;100.00;100455.25;4902235;29;20020;-72
2021/08/07 03:36:06;;;;;;;12.80;9.38;;;;;;;22.50;100.00;100470.22;4901625;29;20070;-72
2021/08/07 03:38:52;;;;;;;11.13;9.30;;;;;;;22.40;100.00;100478.00;4902788;29;20035;-72
2021/08/07 03:41:38;;;;;;;11.07;8.40;;;;;;;22.55;100.00;100478.78;4901879;29;20036;-72
2021/08/07 03:44:23;;;;;;;11.30;7.95;;;;;;;22.72;100.00;100484.63;4902259;29;20048;-72
2021/08/07 03:47:09;;;;;;;11.15;8.05;;;;;;;22.11;100.00;100462.28;4901239;29;20060;-72
2021/08/07 03:49:55;;;;;;;12.30;7.45;;;;;;;21.94;100.00;100481.25;4902014;29;20461;-72
2021/08/07 03:52:41;;;;;;;11.63;8.18;;;;;;;22.03;100.00;100476.13;4901561;29;20028;-72
2021/08/07 03:55:27;;;;;;;11.07;7.28;;;;;;;22.35;100.00;100472.09;4902168;29;20064;-72
2021/08/07 03:58:12;;;;;;;7.90;7.10;;;;;;;22.08;100.00;100484.69;4901017;29;20040;-72
2021/08/07 04:00:58;;;;;;;12.13;7.05;;;;;;;22.20;100.00;100488.34;4901683;29;20029;-72
2021/08/07 04:03:44;;;;;;;10.63;7.28;;;;;;;22.19;100.00;100487.47;4901553;29;20347;-72
2021/08/07 04:06:30;;;;;;;9.52;6.70;;;;;;;22.17;100.00;100497.41;4901989;29;20120;-72
2021/08/07 04:09:15;;;;;;;13.18;7.18;;;;;;;21.94;100.00;100498.09;4901520;29;20441;-72
2021/08/07 04:12:01;;;;;;;13.95;7.35;;;;;;;22.00;100.00;100505.72;4901624;29;20098;-72
2021/08/07 04:14:47;;;;;;;13.75;6.90;;;;;;;21.98;100.00;100510.28;4901215;29;20029;-72
2021/08/07 04:17:36;;;;;;;13.02;7.32;;;;;;;22.30;100.00;100522.28;4901552;29;20025;-72
2021/08/07 04:20:21;;;;;;;10.65;6.95;;;;;;;22.64;100.00;100527.06;4901273;29;20029;-72
2021/08/07 04:23:07;;;;;;;9.70;6.90;;;;;;;22.16;100.00;100535.75;4900423;29;20165;-72
2021/08/07 04:25:53;;;;;;;10.55;7.15;;;;;;;22.34;100.00;100529.13;4900907;29;20351;-72
2021/08/07 04:28:39;;;;;;;11.68;7.25;;;;;;;22.34;100.00;100529.13;4901069;29;20024;-72
2021/08/07 04:31:24;;;;;;;10.65;6.82;;;;;;;21.66;100.00;100535.53;4901636;29;20099;-72
2021/08/07 04:34:10;;;;;;;11.32;6.57;;;;;;;21.64;100.00;100541.94;4900920;29;20381;-71
2021/08/07 04:36:56;;;;;;;8.88;6.40;;;;;;;21.90;100.00;100546.47;4900075;29;20031;-72
2021/08/07 04:39:42;;;;;;;10.02;6.07;;;;;;;22.20;100.00;100547.91;4901067;29;20028;-71
2021/08/07 04:42:28;;;;;;;8.70;6.03;;;;;;;21.75;100.00;100561.66;4901265;29;20458;-72
2021/08/07 04:45:14;;;;;;;8.07;5.80;;;;;;;22.04;100.00;100568.59;4901154;29;20402;-72
2021/08/07 04:48:04;;;;;;;8.70;5.38;;;;;;;22.56;100.00;100571.28;4901132;29;20474;-72
2021/08/07 04:50:49;;;;;;;5.72;4.93;;;;;;;22.53;100.00;100564.31;4900860;29;20482;-72
2021/08/07 04:53:35;;;;;;;8.43;4.95;;;;;;;22.37;100.00;100578.78;4900803;29;20080;-72
2021/08/07 04:56:27;;;;;;;8.70;5.40;;;;;;;22.59;100.00;100571.91;5071265;27;20870;-71
2021/08/07 04:59:13;;;;;;;8.15;5.70;;;;;;;22.55;100.00;100574.91;5071719;28;20300;-71
2021/08/07 05:01:58;;;;;;;8.65;5.50;;;;;;;22.45;100.00;100571.09;5071225;28;20460;-72
2021/08/07 05:04:44;;;;;;;7.35;5.00;;;;;;;22.44;100.00;100575.63;5071597;28;20473;-70
2021/08/07 05:07:33;;;;;;;5.90;5.15;;;;;;;22.50;100.00;100579.69;5071521;28;20058;-71
2021/08/07 05:10:19;;;;;;;6.40;4.75;;;;;;;22.45;100.00;100579.97;5071221;28;20082;-71
2021/08/07 05:13:05;;;;;;;7.78;4.70;;;;;;;22.40;100.00;100587.47;5071765;28;20029;-71
2021/08/07 05:15:50;;;;;;;8.00;4.72;;;;;;;22.43;100.00;100592.56;5096760;28;20028;-72
2021/08/07 05:18:36;;;;;;;6.50;4.63;;;;;;;22.72;100.00;100601.31;5096693;28;20058;-71
2021/08/07 05:21:22;;;;;;;7.47;4.47;;;;;;;22.77;100.00;100601.84;5111567;28;20028;-72
2021/08/07 05:24:08;;;;;;;6.07;4.70;;;;;;;22.64;100.00;100606.31;5111471;28;20031;-72
2021/08/07 05:26:53;;;;;;;5.93;4.55;;;;;;;23.20;100.00;100606.75;5111948;28;20023;-71
2021/08/07 05:29:39;;;;;;;7.78;4.32;;;;;;;22.97;100.00;100610.19;5112392;28;20078;-72
2021/08/07 05:32:25;;;;;;;9.68;4.30;;;;;;;23.09;100.00;100614.66;5111724;28;20024;-71
2021/08/07 05:35:11;;;;;;;11.77;4.35;;;;;;;23.29;100.00;100619.50;5111245;28;20481;-71
2021/08/07 05:37:57;;;;;;;7.10;4.10;;;;;;;22.95;100.00;100632.63;5097769;28;20038;-72
2021/08/07 05:40:43;;;;;;;9.95;4.22;;;;;;;23.03;100.00;100638.31;5111221;28;20103;-72
2021/08/07 05:43:28;;;;;;;5.15;4.05;;;;;;;22.98;100.00;100649.28;5111977;28;20034;-72
2021/08/07 05:46:14;;;;;;;6.70;4.32;;;;;;;23.18;100.00;100648.75;5110850;28;20023;-72
2021/08/07 05:49:00;;;;;;;5.75;4.40;;;;;;;23.16;100.00;100652.50;5112028;28;20470;-72
2021/08/07 05:51:46;;;;;;;9.10;4.90;;;;;;;23.31;100.00;100656.81;5110209;28;20038;-72
2021/08/07 05:54:31;;;;;;;8.13;4.70;;;;;;;23.03;100.00;100649.81;5111586;28;20055;-72
2021/08/07 05:57:17;;;;;;;4.60;4.13;;;;;;;23.07;100.00;100645.97;5110770;28;20032;-72
2021/08/07 06:00:04;;;;;;;13.55;4.35;;;;;;;23.31;100.00;100644.28;5111186;28;20023;-72
2021/08/07 06:02:50;;;;;;;5.25;4.18;;;;;;;23.46;100.00;100647.69;5111788;28;20524;-72
2021/08/07 06:05:36;;;;;;;4.88;3.78;;;;;;;23.52;100.00;100655.28;5110100;28;20039;-72
2021/08/07 06:08:22;;;;;;;10.50;4.25;;;;;;;23.80;100.00;100659.50;5097438;28;20165;-72
2021/08/07 06:11:08;;;;;;;7.55;4.47;;;;;;;23.63;100.00;100665.22;5096554;28;20024;-72
2021/08/07 06:13:53;;;;;;;10.80;4.30;;;;;;;23.61;100.00;100659.09;5083654;28;20020;-72
2021/08/07 06:16:39;;;;;;;7.45;4.28;;;;;;;23.85;100.00;100660.00;5097194;28;20040;-72
2021/08/07 06:19:25;;;;;;;9.10;4.40;;;;;;;24.12;100.00;100669.59;5096760;28;20043;-72
2021/08/07 06:22:11;;;;;;;5.50;4.20;;;;;;;24.24;100.00;100675.84;5097192;28;20129;-72
2021/08/07 06:25:00;;;;;;;6.63;4.63;;;;;;;23.89;100.00;100670.38;5097818;28;20024;-72
2021/08/07 06:27:52;;;;;;;5.40;4.47;;;;;;;24.33;100.00;100680.50;5096683;28;20111;-72
2021/08/07 06:30:43;;;;;;;7.90;5.25;;;;;;;24.78;100.00;100682.44;5097363;28;20024;-72
2021/08/07 06:33:28;;;;;;;7.65;4.65;;;;;;;24.72;100.00;100688.28;5081587;28;20020;-72
2021/08/07 06:36:14;;;;;;;7.53;5.10;;;;;;;24.99;100.00;100680.81;5095803;28;20110;-72
2021/08/07 06:39:00;;;;;;;8.68;4.75;;;;;;;24.78;100.00;100690.47;5097077;28;20474;-72
2021/08/07 06:41:45;;;;;;;12.02;5.32;;;;;;;24.66;100.00;100689.59;5096522;28;20066;-71
2021/08/07 06:44:31;;;;;;;10.60;5.32;;;;;;;25.10;100.00;100689.72;5097451;28;20051;-72
2021/08/07 06:47:17;;;;;;;7.90;4.80;;;;;;;24.80;100.00;100701.94;5096704;28;20028;-72
2021/08/07 06:50:05;;;;;;;7.57;4.97;;;;;;;25.23;100.00;100706.53;5096694;28;20444;-72
2021/08/07 06:52:51;;;;;;;8.82;5.38;;;;;;;24.56;100.00;100710.00;5096639;28;20028;-72
2021/08/07 06:55:36;;;;;;;9.13;5.18;;;;;;;25.42;100.00;100709.53;5081084;28;20111;-72
2021/08/07 06:58:22;;;;;;;6.70;4.60;;;;;;;25.54;100.00;100694.28;5096829;28;20109;-72
2021/08/07 07:01:08;;;;;;;7.53;4.90;;;;;;;25.11;100.00;100702.13;5082168;28;20027;-72
2021/08/07 07:03:54;;;;;;;7.50;4.20;;;;;;;25.66;100.00;100696.00;5096403;28;20028;-72
2021/08/07 07:06:39;;;;;;;7.95;4.45;;;;;;;25.65;100.00;100703.22;5082703;28;20024;-72
2021/08/07 07:09:25;;;;;;;6.53;4.20;;;;;;;25.78;100.00;100698.56;5096704;28;20036;-72
2021/08/07 07:12:15;;;;;;;5.35;4.57;;;;;;;25.83;100.00;100711.59;5095858;28;20483;-72
2021/08/07 07:15:01;;;;;;;6.30;4.30;;;;;;;25.77;100.00;100717.47;5082694;28;20028;-73
2021/08/07 07:17:47;;;;;;;4.75;3.85;;;;;;;25.96;100.00;100718.56;5095129;28;20024;-72
2021/08/07 07:20:33;;;;;;;7.20;4.35;;;;;;;26.36;100.00;100718.88;5095298;28;20024;-73
2021/08/07 07:23:18;;;;;;;8.90;4.40;;;;;;;25.72;100.00;100719.69;5081492;28;20039;-73
2021/08/07 07:26:04;;;;;;;7.25;4.30;;;;;;;26.15;100.00;100723.28;5094936;28;20086;-72
2021/08/07 07:28:50;;;;;;;5.05;3.80;;;;;;;25.96;100.00;100729.31;5095955;28;20450;-72
2021/08/07 07:31:36;;;;;;;5.35;3.60;;;;;;;26.28;99.94;100726.72;5096498;28;20031;-72
2021/08/07 07:34:21;;;;;;;6.20;4.20;;;;;;;26.34;100.00;100728.88;5095268;28;20106;-72
2021/08/07 07:37:07;;;;;;;6.80;3.83;;;;;;;26.75;96.43;100734.38;5095534;28;20028;-72
2021/08/07 07:39:53;;;;;;;7.10;3.97;;;;;;;27.07;92.43;100736.06;5080119;28;20036;-72
2021/08/07 07:42:39;;;;;;;6.65;4.20;;;;;;;26.63;94.53;100721.97;5095452;28;20015;-72
2021/08/07 07:45:28;;;;;;;6.28;4.00;;;;;;;26.46;95.14;100728.72;5082505;28;20111;-71
2021/08/07 07:48:13;;;;;;;5.07;4.03;;;;;;;26.26;96.03;100723.28;5096749;28;20101;-72
2021/08/07 07:51:00;;;;;;;6.45;3.78;;;;;;;26.44;94.15;100730.69;5095928;28;20109;-72
2021/08/07 07:53:46;;;;;;;5.93;3.92;;;;;;;26.44;95.26;100730.69;5095503;28;20448;-70
2021/08/07 07:56:32;;;;;;;7.28;4.20;;;;;;;26.27;95.90;100725.84;5094541;28;20040;-70
2021/08/07 07:59:17;;;;;;;4.70;3.25;;;;;;;26.73;92.52;100731.81;5094355;28;20466;-70
2021/08/07 08:02:04;;;;;;;4.15;3.70;;;;;;;27.03;92.03;100740.00;5095476;28;20027;-70
2021/08/07 08:04:49;;;;;;;6.90;4.03;;;;;;;27.34;88.30;100732.88;5095186;28;20027;-70
2021/08/07 08:07:35;;;;;;;5.15;3.90;;;;;;;27.95;83.17;100737.31;5094778;28;20089;-70
2021/08/07 08:10:21;;;;;;;5.15;3.45;;;;;;;27.51;89.11;100732.25;5094774;28;20035;-70
2021/08/07 08:13:08;;;;;;;8.38;3.70;;;;;;;28.09;81.59;100734.25;5081330;28;20127;-69
2021/08/07 08:15:54;;;;;;;4.20;3.50;;;;;;;28.24;78.11;100735.53;5093601;28;20031;-69
2021/08/07 08:18:40;;;;;;;8.15;3.67;;;;;;;28.02;78.85;100734.91;5094626;28;20083;-70
2021/08/07 08:21:31;;;;;;;8.15;3.28;;;;;;;28.78;73.93;100733.22;5072594;28;20054;-73
2021/08/07 08:24:17;;;;;;;4.07;3.38;;;;;;;28.64;73.62;100735.50;5094762;28;20500;-72
2021/08/07 08:27:03;;;;;;;8.57;3.63;;;;;;;29.43;71.42;100727.06;5094739;28;20103;-72
2021/08/07 08:29:49;;;;;;;5.55;3.40;;;;;;;29.27;69.56;100727.66;5094437;28;20085;-70
2021/08/07 08:32:34;;;;;;;4.28;3.17;;;;;;;29.97;66.51;100727.16;5094457;28;20115;-72
2021/08/07 08:35:20;;;;;;;7.80;3.35;;;;;;;30.09;65.05;100734.09;5094763;28;20093;-72
2021/08/07 08:38:06;;;;;;;4.85;3.20;;;;;;;29.76;62.77;100735.50;5094717;28;20038;-72
2021/08/07 08:40:58;;;;;;;4.75;2.92;;;;;;;30.08;61.68;100730.50;5093661;28;20060;-72
2021/08/07 08:43:44;;;;;;;5.25;2.95;;;;;;;30.75;58.79;100738.22;5094643;28;20027;-72
2021/08/07 08:46:30;;;;;;;6.60;3.03;;;;;;;30.16;59.81;100740.59;5093723;28;20443;-72
2021/08/07 08:49:16;;;;;;;3.75;3.10;;;;;;;29.85;60.98;100739.19;5094095;28;20464;-72
2021/08/07 08:52:02;;;;;;;4.40;3.05;;;;;;;29.74;60.95;100732.09;5094505;28;20038;-72
2021/08/07 08:54:48;;;;;;;5.93;2.97;;;;;;;30.12;60.61;100728.34;5094223;28;20048;-71
2021/08/07 08:57:43;;;;;;;7.55;2.97;;;;;;;30.27;60.17;100730.44;5094456;28;20035;-72
2021/08/07 09:00:29;;;;;;;6.88;2.97;;;;;;;30.42;59.93;100734.31;5094259;28;20028;-72
2021/08/07 09:03:14;;;;;;;3.45;2.90;;;;;;;30.76;56.44;100724.56;5094154;28;20448;-71
2021/08/07 09:06:00;;;;;;;3.75;2.92;;;;;;;30.57;56.32;100726.50;5093777;28;20028;-71
2021/08/07 09:09:01;;;;;;;2.95;2.58;;;;;;;30.40;58.43;100728.22;5093970;28;20101;-71
2021/08/07 09:11:51;;;;;;;4.18;3.42;;;;;;;31.12;57.07;100730.78;5094151;28;20048;-71
2021/08/07 09:14:42;;;;;;;3.40;3.10;;;;;;;30.88;56.38;100728.72;5094172;28;20034;-70
2021/08/07 09:17:29;;;;;;;5.15;2.92;;;;;;;30.42;55.76;100720.78;5094227;28;20035;-70
2021/08/07 09:20:26;;;;;;;4.43;2.90;;;;;;;31.05;56.08;100714.31;5094268;28;20039;-70
2021/08/07 09:23:12;;;;;;;4.03;3.05;;;;;;;30.95;53.40;100721.66;5092957;28;20020;-70
2021/08/07 09:26:14;;;;;;;5.15;2.65;;;;;;;31.04;53.83;100719.88;5093399;28;20062;-70
2021/08/07 09:29:00;;;;;;;4.80;2.88;;;;;;;31.61;52.24;100721.16;5093635;28;20408;-70
2021/08/07 09:31:58;;;;;;;3.83;2.70;;;;;;;31.94;50.55;100723.88;5093880;28;20401;-70
2021/08/07 09:34:44;;;;;;;3.00;2.65;;;;;;;32.00;50.23;100725.94;5093608;28;20036;-71
2021/08/07 09:37:29;;;;;;;4.15;2.33;;;;;;;31.73;48.33;100723.41;5094063;28;20057;-69
2021/08/07 09:40:15;;;;;;;4.88;2.17;;;;;;;30.75;48.95;100730.97;5093303;28;20023;-69
2021/08/07 09:43:01;;;;;;;8.82;2.40;;;;;;;31.16;48.77;100734.84;5097290;28;20341;-69
2021/08/07 09:46:12;;;;;;;3.47;2.20;;;;;;;31.30;48.65;100732.47;5097130;28;20111;-70
2021/08/07 09:48:57;;;;;;;3.97;2.47;;;;;;;30.77;50.22;100717.25;5096931;28;20039;-69
2021/08/07 09:51:52;;;;;;;5.43;2.42;;;;;;;31.27;49.88;100721.09;5097404;28;20096;-70
2021/08/07 09:54:40;;;;;;;4.68;2.50;;;;;;;31.53;48.38;100716.53;5096442;28;20054;-70
2021/08/07 09:57:29;;;;;;;3.60;2.60;;;;;;;31.34;49.59;100705.94;5096563;28;20448;-70
2021/08/07 10:00:14;;;;;;;6.50;2.78;;;;;;;31.20;50.80;100710.03;5097649;28;20028;-70
2021/08/07 10:03:18;;;;;;;3.70;2.78;;;;;;;31.67;50.05;100706.94;5097327;28;20031;-70
2021/08/07 10:06:21;;;;;;;4.50;2.90;;;;;;;31.41;51.07;100717.81;5097198;28;20020;-69
2021/08/07 10:09:08;;;;;;;7.90;3.25;;;;;;;30.91;52.60;100717.56;5096913;28;20361;-69
2021/08/07 10:12:08;;;;;;;5.97;3.33;;;;;;;31.04;52.83;100712.63;5097030;28;20016;-70
2021/08/07 10:14:54;;;;;;;4.75;2.80;;;;;;;30.67;52.96;100711.94;5096299;28;20063;-69
2021/08/07 10:17:41;;;;;;;3.78;3.08;;;;;;;30.65;52.64;100719.34;5096873;28;20032;-69
2021/08/07 10:20:28;;;;;;;5.60;3.03;;;;;;;31.15;52.04;100722.34;5097331;28;20020;-69
2021/08/07 10:23:15;;;;;;;3.72;2.83;;;;;;;31.16;52.92;100714.06;5096536;28;20028;-70
2021/08/07 10:26:02;;;;;;;4.47;3.30;;;;;;;30.98;51.70;100729.47;5096112;28;20020;-69
2021/08/07 10:28:53;;;;;;;3.85;3.35;;;;;;;30.80;51.93;100723.25;5096840;28;20035;-70
2021/08/07 10:31:40;;;;;;;4.22;3.10;;;;;;;30.82;52.92;100720.38;5096631;28;20024;-70
2021/08/07 10:34:27;;;;;;;4.05;3.10;;;;;;;30.52;53.29;100718.88;5096346;28;20023;-70
2021/08/07 10:37:13;;;;;;;5.90;3.33;;;;;;;31.07;52.66;100725.81;5096389;28;20027;-70
2021/08/07 10:39:59;;;;;;;4.53;2.53;;;;;;;30.70;51.96;100722.44;5096662;28;20527;-69
2021/08/07 10:42:46;;;;;;;3.92;2.67;;;;;;;31.20;51.33;100726.28;5096795;28;20028;-69
2021/08/07 10:45:32;;;;;;;4.63;2.58;;;;;;;30.58;51.94;100726.34;5095763;28;20027;-70
2021/08/07 10:48:38;;;;;;;2.75;2.50;;;;;;;31.05;51.07;100722.44;5096507;28;20111;-69
2021/08/07 10:51:24;;;;;;;4.95;2.17;;;;;;;31.14;50.85;100726.88;5095875;28;20024;-69
2021/08/07 10:54:13;;;;;;;8.20;2.55;;;;;;;31.70;48.77;100722.91;5095944;28;20032;-69
2021/08/07 10:56:58;;;;;;;2.75;2.30;;;;;;;31.43;49.19;100721.22;5096161;28;20100;-69
2021/08/07 10:59:44;;;;;;;2.90;2.40;;;;;;;31.48;49.74;100723.44;5097185;28;20028;-70
2021/08/07 11:02:30;;;;;;;4.35;2.30;;;;;;;31.25;48.56;100718.56;5096857;28;20032;-69
2021/08/07 11:05:16;;;;;;;2.25;2.05;;;;;;;31.65;47.94;100720.66;5095799;28;20027;-69
2021/08/07 11:08:15;;;;;;;5.30;2.50;;;;;;;31.54;47.87;100715.50;5096225;28;20035;-69
2021/08/07 11:11:26;;;;;;;2.85;2.20;;;;;;;31.74;48.65;100716.13;5095744;28;20020;-69
2021/08/07 11:14:28;;;;;;;3.50;2.47;;;;;;;32.01;46.29;100724.09;5095671;28;20452;-69
2021/08/07 11:17:13;;;;;;;2.53;2.30;;;;;;;32.26;45.23;100717.75;5095416;28;20032;-69
2021/08/07 11:20:10;;;;;;;2.75;2.10;;;;;;;32.05;46.08;100714.59;5095693;28;20032;-69
2021/08/07 11:22:56;;;;;;;3.08;2.35;;;;;;;32.24;45.03;100707.06;5094867;28;20032;-69
2021/08/07 11:25:50;;;;;;;2.80;2.20;;;;;;;32.31;43.37;100718.13;5095473;28;20098;-70
2021/08/07 11:29:06;;;;;;;3.05;2.05;;;;;;;32.10;43.03;100715.81;5095852;28;20031;-70
2021/08/07 11:32:16;;;;;;;3.25;2.22;;;;;;;32.71;43.27;100710.03;5095715;28;20059;-70
2021/08/07 11:35:01;;;;;;;2.55;2.00;;;;;;;32.31;42.04;100721.69;5094549;28;20016;-70
2021/08/07 11:38:05;;;;;;;3.40;2.05;;;;;;;32.49;41.62;100721.53;5095424;28;20341;-69
2021/08/07 11:41:06;;;;;;;6.20;2.40;;;;;;;32.75;40.22;100716.84;5094840;28;20034;-70
2021/08/07 11:43:55;;;;;;;2.30;2.10;;;;;;;32.84;39.09;100705.00;5095580;28;20060;-70
2021/08/07 11:46:41;;;;;;;3.53;2.15;;;;;;;32.79;39.24;100713.59;5095126;28;20455;-70
2021/08/07 11:49:31;;;;;;;2.80;2.10;;;;;;;32.88;39.20;100712.63;5095480;28;20089;-69
2021/08/07 11:52:17;;;;;;;3.03;2.10;;;;;;;33.08;39.74;100707.69;5094241;28;20055;-69
2021/08/07 11:55:03;;;;;;;4.78;2.40;;;;;;;32.99;39.56;100708.72;5094836;28;20117;-70
2021/08/07 11:58:07;;;;;;;3.03;2.25;;;;;;;33.16;41.39;100708.56;5095398;28;20020;-70
2021/08/07 12:01:04;;;;;;;2.78;2.20;;;;;;;33.61;38.98;100711.53;5095033;28;20027;-69
2021/08/07 12:03:52;;;;;;;2.75;2.20;;;;;;;33.13;39.33;100706.16;5094383;28;20217;-70
2021/08/07 12:06:41;;;;;;;3.45;2.20;;;;;;;33.11;40.37;100702.75;5094244;28;20440;-69
2021/08/07 12:09:27;;;;;;;2.45;2.20;;;;;;;33.40;38.55;100708.56;5094521;28;20027;-70
2021/08/07 12:12:15;;;;;;;2.45;2.10;;;;;;;32.73;39.51;100699.84;5094851;28;20032;-69
2021/08/07 12:15:08;;;;;;;3.28;1.90;;;;;;;33.31;39.20;100697.84;5094368;28;20028;-69
2021/08/07 12:17:55;;;;;;;4.72;1.85;;;;;;;32.90;39.51;100701.63;5094673;28;20104;-70
2021/08/07 12:20:45;;;;;;;4.85;2.22;;;;;;;32.55;39.23;100699.19;5094628;28;20062;-70
2021/08/07 12:23:40;;;;;;;2.85;2.20;;;;;;;33.06;39.46;100698.88;5094570;28;20463;-69
2021/08/07 12:26:27;;;;;;;2.28;2.08;;;;;;;33.56;38.79;100704.94;5094680;28;20020;-70
2021/08/07 12:29:16;;;;;;;5.15;2.38;;;;;;;33.36;38.08;100703.63;5094506;28;20092;-70
2021/08/07 12:32:04;;;;;;;2.45;2.20;;;;;;;33.83;37.51;100699.94;5094605;28;20039;-70
2021/08/07 12:34:50;;;;;;;2.63;2.13;;;;;;;33.85;37.19;100688.88;5093686;28;20039;-70
2021/08/07 12:37:35;;;;;;;3.53;2.15;;;;;;;33.94;36.65;100696.84;5094605;28;20110;-71
2021/08/07 12:40:21;;;;;;;2.92;2.13;;;;;;;33.70;37.37;100693.31;5093663;28;20472;-71
2021/08/07 12:43:07;;;;;;;5.13;2.25;;;;;;;33.39;37.27;100679.66;5094505;28;20027;-70
2021/08/07 12:45:58;;;;;;;2.45;2.00;;;;;;;33.74;36.69;100686.50;5093511;28;20434;-70
2021/08/07 12:48:45;;;;;;;3.97;2.42;;;;;;;33.83;36.20;100680.91;5094868;28;20097;-70
2021/08/07 12:51:35;;;;;;;3.35;2.13;;;;;;;34.01;36.46;100677.94;5094072;28;20463;-70